Weather observations for the past three days for
Sturgis, Kirsch Municipal Airport
Metric (Imperial)
Date Time (edt) Wind (kph) Vis. (km) Weather Sky Cond. Temperature (ºC) Relative Humidity Wind Chill (°C) Heat Index (°C) Pressure Precipitation (cm)
Air Dwpt 6 hour altimeter (cm) sea level (mb) 1 hr 3 hr 6 hr
Max. Min.
10 06:35 NE 7 16.09 Fair CLR 6 -1 61% 5 76.15 0.0
10 06:15 NE 9 16.09 Fair CLR 6 -1 61% 4 76.12 0.0
10 05:55 NE 15 16.09 Fair CLR 6 -1 61% 3 76.1 0.0
10 05:35 NE 15 16.09 Fair CLR 6 0 66% 3 76.1 0.0
10 05:16 NE 13 16.09 Fair CLR 7 0 61% 5 76.1 0.0
10 04:55 N 13 16.09 Fair CLR 7 0 61% 5 76.07 0.0
10 04:35 NE 17 16.09 Fair CLR 7 1 66% 4 76.05 0.0
10 04:15 NE 17 16.09 Fair CLR 8 2 66% 6 76.02 0.0
10 03:55 N 26 16.09 Fair CLR 8 3 71% 5 76 0.0
10 03:35 N 15 16.09 Fair CLR 7 3 76% 5 75.95 0.0
10 03:15 NW 4 16.09 Fair CLR 6 3 81% 75.92 0.0
10 02:56 N 2 16.09 Fair CLR 7 3 76% 75.9 0.0
10 02:35 SW 4 16.09 Fair CLR 7 3 76% 75.87 0.0
10 02:15 W 6 16.09 A Few Clouds FEW085 7 4 81% 75.84 0.0
10 01:55 N 7 16.09 Mostly Cloudy BKN085 8 3 20.4 7.6 71% 7 75.82 0.0
10 01:35 NW 4 16.09 Mostly Cloudy BKN085 8 3 71% 75.84 0.0
10 01:15 NW 6 16.09 Mostly Cloudy BKN085 9 3 66% 75.82 0.0
10 00:55 N 7 16.09 Partly Cloudy SCT085 8 4 76% 7 75.79 0.0
10 00:36 N 6 16.09 A Few Clouds FEW085 9 3 66% 75.79 0.0
10 00:15 NW 6 16.09 Fair CLR 10 3 62% 75.79 0.0
09 23:55 W 6 16.09 Fair CLR 11 2 54% 75.77 0.0
09 23:35 N 7 16.09 Fair CLR 11 2 54% 75.74 0.0
09 23:15 N 11 16.09 Fair CLR 12 2 51% 75.72 0.0
09 22:55 N 11 16.09 Fair CLR 12 2 51% 75.72 0.0
09 22:36 N 11 16.09 Fair CLR 13 3 51% 75.69 0.0
09 22:15 N 15 16.09 Fair CLR 13 3 51% 75.64 0.0
09 21:55 N 20 16.09 Fair CLR 14 3 48% 75.62 0.0
09 21:35 N 17 16.09 Fair CLR 15 4 48% 75.57 0.0
09 21:15 NW 31 G 41 16.09 Fair CLR 16 3 42% 75.51 0.0
09 20:55 NW 24 G 39 16.09 Fair CLR 17 3 39% 75.46 0.0
09 20:35 NW 22 G 33 16.09 A Few Clouds FEW090 19 3 35% 75.41 0.0
09 20:16 NW 22 G 33 16.09 Partly Cloudy SCT090 19 3 35% 75.36 0.0
09 19:55 W 15 G 31 16.09 Partly Cloudy SCT090 20 3 21.4 19.3 33% 75.34 0.0
09 19:35 W 20 G 31 16.09 Mostly Cloudy BKN100 21 4 33% 75.31 0.0
09 19:15 W 17 G 31 16.09 Overcast FEW080 BKN100 OVC110 20 5 38% 75.31 0.0
09 18:55 W 22 G 31 16.09 Mostly Cloudy SCT080 BKN100 20 6 40% 75.31 0.0
09 18:35 W 19 G 35 16.09 Fair CLR 21 6 38% 75.31 0.0
09 18:15 W 15 16.09 Mostly Cloudy SCT075 SCT095 BKN120 21 6 38% 75.31 0.0
09 17:55 W 19 16.09 Partly Cloudy FEW085 SCT095 20 5 38% 75.31 0.0
09 17:35 W 20 16.09 Fair CLR 21 5 35% 75.29 0.0
09 17:15 W 22 G 39 16.09 A Few Clouds FEW110 21 5 35% 75.29 0.0
09 16:55 W 19 G 26 16.09 Partly Cloudy SCT110 21 3 31% 75.31 0.0
09 16:35 W 17 16.09 Overcast OVC110 20 4 35% 75.31 0.0
09 16:15 W 17 G 35 16.09 Mostly Cloudy BKN110 20 6 40% 75.34 0.0
09 15:55 W 15 16.09 A Few Clouds FEW090 20 7 43% 75.31 0.0
09 15:35 NW 20 G 26 16.09 Mostly Cloudy BKN090 20 9 49% 75.34 0.0
09 15:16 NW 26 G 39 16.09 Mostly Cloudy FEW065 FEW090 BKN110 20 6 40% 75.36 0.0
09 14:55 W 26 G 37 16.09 Mostly Cloudy SCT060 SCT070 BKN085 20 7 43% 75.31 0.0
09 14:35 W 22 16.09 Mostly Cloudy SCT055 SCT070 BKN085 21 8 43% 75.29 0.0
09 14:15 W 28 G 41 16.09 A Few Clouds FEW055 21 10 50% 75.29 0.0
09 13:35 W 33 G 44 16.09 Mostly Cloudy and Breezy BKN048 20 9 49% 75.31 0.0
09 13:15 W 35 G 44 16.09 Partly Cloudy and Breezy SCT048 20 9 49% 75.31 0.0
09 12:56 SW 31 G 50 16.09 A Few Clouds FEW110 20 9 49% 75.31 0.0
09 12:35 SW 31 G 44 16.09 Fair CLR 19 9 52% 75.31 0.0
09 12:15 SW 31 G 41 16.09 Fair CLR 19 11 60% 75.31 0.0
09 11:55 SW 30 16.09 Fair CLR 18 10 60% 75.31 0.0
09 11:35 SW 30 G 35 16.09 A Few Clouds FEW120 18 11 64% 75.31 0.0
09 11:15 SW 28 16.09 A Few Clouds FEW110 17 11 68% 75.34 0.0
09 10:55 SW 26 16.09 Fair CLR 16 11 72% 75.34 0.0
09 10:36 SW 24 G 39 16.09 A Few Clouds FEW016 15 11 77% 75.34 0.0
09 10:15 SW 26 16.09 Partly Cloudy SCT012 SCT100 14 11 82% 75.34 0.0
09 09:55 S 24 G 31 16.09 Overcast OVC010 14 11 82% 75.36 0.0
09 09:35 S 24 G 39 16.09 Overcast OVC010 13 10 82% 75.36 0.0
09 09:15 S 24 16.09 Overcast OVC008 12 10 88% 75.36 0.0
09 08:55 SW 22 G 31 16.09 Overcast OVC008 12 10 88% 75.39 0.0
09 08:35 SW 20 16.09 Overcast OVC008 12 10 88% 75.41 0.0
09 08:16 SW 22 16.09 Overcast OVC006 12 10 88% 75.39 0.0
09 07:55 SW 19 14.48 Overcast OVC006 11 10 11.3 9.2 94% 75.41 0.0
09 07:35 SW 19 12.87 Overcast OVC006 11 10 94% 75.41 0.0
09 07:15 SW 22 12.87 Overcast OVC006 11 10 94% 75.41 0.0
09 06:55 SW 17 12.87 Overcast OVC006 11 10 94% 75.41 0.0
09 06:35 SW 20 11.27 Fog/Mist OVC006 11 10 94% 75.41 0.0
09 06:15 SW 19 12.87 Overcast OVC004 11 10 94% 75.39 0.0
09 05:56 SW 19 G 30 11.27 Overcast OVC004 11 10 94% 75.41 0.0
09 05:35 SW 20 11.27 Fog/Mist OVC004 11 10 94% 75.41 0.0
09 05:15 SW 19 6.44 Fog/Mist OVC002 11 11 100% 75.41 0.0
09 04:55 S 17 2.41 Fog/Mist OVC002 11 10 94% 75.44 0.0
09 04:35 SW 17 2.82 Fog/Mist OVC002 10 10 100% 8 75.46 0.0
09 04:15 S 11 8.05 Fog/Mist BKN004 10 9 94% 9 75.44 0.0
09 03:55 S 9 9.66 Fog/Mist FEW004 10 9 94% 9 75.44 0.0
09 03:36 S 9 8.05 Fog/Mist CLR 10 9 94% 9 75.44 0.0
09 03:15 S 9 12.87 Fair CLR 10 9 94% 9 75.46 0.0
09 02:55 S 11 14.48 Fair CLR 10 9 94% 9 75.46 0.0
09 02:35 S 9 12.87 Fair CLR 10 10 100% 9 75.46 0.0
09 02:15 S 9 16.09 Fair CLR 10 9 94% 9 75.49 0.0
09 01:55 S 9 16.09 Fair CLR 11 10 14.9 10.4 94% 75.51 0.0
09 01:35 S 11 16.09 Fair CLR 11 10 94% 75.51 0.0
09 01:16 S 13 16.09 Fair CLR 11 10 94% 75.51 0.0
09 00:55 S 9 16.09 Fair CLR 11 9 88% 75.54 0.0
09 00:35 SW 11 16.09 Fair CLR 11 9 88% 75.54 0.0
09 00:15 SW 11 16.09 Fair CLR 11 10 94% 75.54 0.0
08 23:55 S 11 16.09 Fair CLR 12 10 88% 75.57 0.0
08 23:35 S 11 16.09 Fair CLR 12 10 88% 75.57 0.0
08 23:15 S 11 16.09 Fair CLR 12 10 88% 75.57 0.0
08 22:56 S 9 16.09 Fair CLR 12 10 88% 75.59 0.0
08 22:35 S 7 16.09 Fair CLR 12 10 88% 75.59 0.0
08 22:15 S 7 16.09 Fair CLR 12 10 88% 75.59 0.0
08 21:55 S 9 16.09 Fair CLR 12 10 88% 75.59 0.0
08 21:35 S 11 16.09 Fair CLR 13 9 77% 75.57 0.0
08 21:15 S 9 16.09 Fair CLR 13 9 77% 75.57 0.0
08 20:55 S 9 16.09 Fair CLR 13 9 77% 75.57 0.0
08 20:35 S 11 16.09 Fair CLR 14 9 72% 75.54 0.0
08 20:15 SW 13 16.09 A Few Clouds FEW070 14 9 72% 75.54 0.0
08 19:55 SW 19 16.09 Fair CLR 15 9 17.3 14.9 68% 75.54 0.0
08 19:35 SW 15 16.09 Fair CLR 15 9 68% 75.54 0.0
08 19:15 SW 19 16.09 Partly Cloudy SCT070 16 9 63% 75.57 0.0
08 18:55 SW 17 16.09 Overcast BKN070 OVC080 15 9 68% 75.57 0.0
08 18:35 S 17 16.09 Overcast BKN070 OVC090 16 8 59% 75.57 0.0
08 18:16 SW 13 16.09 Overcast BKN070 OVC090 15 8 63% 75.57 0.0
08 17:55 SW 19 16.09 Overcast OVC070 16 9 63% 75.57 0.0
08 17:35 SW 19 16.09 Mostly Cloudy BKN070 BKN085 16 9 63% 75.57 0.0
08 17:15 SW 20 16.09 Mostly Cloudy BKN070 BKN085 16 8 59% 75.59 0.0
08 16:55 SW 19 G 28 16.09 Overcast SCT044 OVC070 16 8 59% 75.59 0.0
08 16:35 S 20 16.09 Overcast SCT044 BKN080 OVC090 16 8 59% 75.59 0.0
08 16:15 SW 17 G 26 16.09 Mostly Cloudy SCT041 SCT049 BKN080 17 8 56% 75.62 0.0
08 15:56 S 19 G 28 16.09 Mostly Cloudy BKN041 BKN049 BKN080 16 7 55% 75.64 0.0
08 15:35 S 20 16.09 Mostly Cloudy FEW039 BKN046 BKN090 17 8 56% 75.67 0.0
08 15:15 SW 19 16.09 Mostly Cloudy BKN090 17 8 56% 75.69 0.0
08 14:55 SW 19 16.09 Mostly Cloudy BKN090 17 5 45% 75.69 0.0
08 14:35 SW 17 16.09 Partly Cloudy SCT080 16 4 45% 75.72 0.0
08 14:15 SW 19 16.09 Partly Cloudy SCT080 16 4 45% 75.74 0.0
08 13:55 SW 17 16.09 Mostly Cloudy BKN080 16 4 16.4 6.2 45% 75.77 0.0
08 13:36 SW 15 16.09 Mostly Cloudy BKN090 16 4 45% 75.77 0.0
08 13:15 SW 9 G 28 16.09 Mostly Cloudy BKN090 16 4 45% 75.79 0.0
08 12:55 W 15 16.09 Partly Cloudy SCT090 15 4 48% 75.82 0.0
08 12:35 SW 15 16.09 Mostly Cloudy FEW038 BKN090 BKN110 15 6 55% 75.82 0.0
08 12:15 Vrbl 11 16.09 Mostly Cloudy BKN090 BKN110 15 6 55% 75.84 0.0
08 11:55 Vrbl 9 16.09 Mostly Cloudy BKN090 14 6 59% 75.84 0.0
08 11:35 Vrbl 6 16.09 Mostly Cloudy BKN090 13 6 63% 75.84 0.0
08 11:16 SW 9 16.09 Mostly Cloudy BKN100 13 7 67% 75.84 0.0
08 10:55 SW 11 16.09 Mostly Cloudy BKN100 13 8 72% 75.87 0.0
08 10:35 SW 7 16.09 Partly Cloudy SCT100 12 8 77% 75.87 0.0
08 10:15 Vrbl 9 16.09 Partly Cloudy SCT100 SCT120 11 8 82% 75.9 0.0
08 09:55 Vrbl 7 16.09 Mostly Cloudy BKN100 BKN120 11 8 82% 75.9 0.0
08 09:35 W 6 16.09 Mostly Cloudy BKN100 10 8 88% 75.9 0.0
08 09:15 Vrbl 4 16.09 Overcast OVC110 9 7 87% 75.9 0.0
08 08:56 W 6 16.09 Overcast OVC110 9 7 87% 75.9 0.0
08 08:35 Vrbl 6 16.09 Mostly Cloudy BKN120 8 7 93% 75.9 0.0
08 08:15 SW 6 12.87 A Few Clouds FEW110 7 7 100% 75.9 0.0
08 07:55 SW 6 8.05 Fog/Mist CLR 6 6 6.5 3.2 100% 75.9 0.0
08 07:35 SW 7 6.44 Fog/Mist CLR 5 5 100% 4 75.87 0.0
08 07:15 S 2 4.83 Fog/Mist FEW090 4 4 100% 75.84 0.0
08 06:55 S 6 2.41 Fog/Mist BKN090 4 4 100% 75.87 0.0
08 06:36 S 4 0.24 Fog BKN090 4 4 100% 75.84 0.0
08 06:15 S 4 1.21 Fog/Mist VV005 4 3 93% 75.84 0.0
08 05:55 SW 6 6.44 Fog/Mist CLR 4 3 93% 75.84 0.0
08 05:35 S 2 6.44 Fog/Mist CLR 4 4 100% 75.84 0.0
08 05:15 Calm 3.22 Fog/Mist CLR 5 5 100% 75.84 0.0
08 04:55 SW 2 4.83 Fog/Mist CLR 5 4 93% 75.84 0.0
08 04:35 SW 2 8.05 Fog/Mist CLR 5 4 93% 75.84 0.0
08 04:16 S 6 9.66 Fog/Mist FEW095 5 5 100% 75.84 0.0
08 03:55 SW 4 14.48 Partly Cloudy SCT095 5 5 100% 75.84 0.0
08 03:35 SW 6 12.87 Partly Cloudy SCT095 5 5 100% 75.87 0.0
08 03:15 S 6 9.66 Fog/Mist FEW095 6 5 93% 75.84 0.0
08 02:55 SW 6 12.87 Fair CLR 6 5 93% 75.87 0.0
08 02:35 S 6 11.27 Fog/Mist CLR 6 5 93% 75.87 0.0
08 02:15 S 6 16.09 Fair CLR 6 5 93% 75.87 0.0
08 01:56 S 6 16.09 Fair CLR 6 5 93% 75.9 0.0
08 01:35 S 7 16.09 Fair CLR 6 5 93% 5 75.9 0.0
08 01:15 S 6 16.09 A Few Clouds FEW070 6 5 93% 75.9 0.0
08 00:55 S 6 16.09 Fair CLR 6 5 93% 75.9 0.0
08 00:35 S 7 16.09 Partly Cloudy SCT075 SCT085 7 5 87% 6 75.9 0.0
08 00:15 S 9 16.09 Partly Cloudy SCT085 7 5 87% 5 75.9 0.0
07 23:55 S 11 16.09 A Few Clouds FEW085 7 5 87% 5 75.9 0.0
07 23:36 S 11 16.09 Fair CLR 7 5 87% 5 75.87 0.0
07 23:15 S 9 16.09 Fair CLR 7 5 87% 5 75.87 0.0
07 22:55 S 11 16.09 Fair CLR 7 5 87% 5 75.9 0.0
07 22:35 S 13 16.09 Fair CLR 7 5 87% 5 75.9 0.0
07 22:15 SW 13 16.09 Fair CLR 7 5 87% 5 75.9 0.0
07 21:55 S 15 16.09 A Few Clouds FEW120 8 5 82% 6 75.9 0.0
07 21:35 SW 17 16.09 Mostly Cloudy SCT075 SCT100 BKN120 9 5 76% 7 75.9 0.0
07 21:16 SW 6 16.09 Light Rain BKN043 BKN050 OVC070 9 5 76% 75.87 0.0
07 20:55 S 4 16.09 Light Rain SCT043 BKN050 BKN070 9 6 82% 75.9 0.0
07 20:35 S 11 16.09 Light Drizzle SCT050 BKN075 BKN085 9 6 82% 8 75.87 0.0
07 20:15 SW 19 16.09 Light Rain BKN046 BKN065 OVC085 10 5 71% 8 75.87 0.0
07 19:55 SW 17 16.09 Light Rain BKN055 BKN075 BKN110 10 4 14.4 10.2 67% 8 75.84 0.0
07 19:35 SW 26 G 39 16.09 Partly Cloudy SCT046 SCT075 11 4 62% 75.84 0.0
07 19:15 SW 26 16.09 Partly Cloudy SCT046 11 3 58% 75.84 0.0
07 18:56 SW 26 16.09 A Few Clouds FEW060 FEW100 12 2 51% 75.84 0.0
07 18:35 SW 33 G 43 16.09 Mostly Cloudy and Breezy SCT060 BKN075 13 2 47% 75.84 0.0
07 18:15 SW 30 G 37 16.09 Overcast OVC060 12 1 47% 75.84 0.0
07 17:55 SW 24 G 31 16.09 Overcast OVC070 12 1 47% 75.87 0.0
07 17:35 SW 22 16.09 Overcast OVC070 12 1 47% 75.87 0.0
07 17:15 SW 15 16.09 Overcast FEW045 SCT060 OVC065 12 0 44% 75.9 0.0
07 16:55 W 22 G 31 16.09 Mostly Cloudy SCT070 BKN080 13 -1 38% 75.9 0.0
07 16:36 W 17 G 26 16.09 A Few Clouds FEW070 FEW080 14 -1 36% 75.9 0.0
07 16:15 W 22 G 39 16.09 A Few Clouds FEW070 FEW090 14 -1 36% 75.92 0.0
07 15:55 W 20 16.09 Partly Cloudy FEW070 SCT090 14 -1 36% 75.92 0.0
07 15:35 W 19 16.09 Fair CLR 13 -1 38% 75.95 0.0
07 15:15 W 11 16.09 Fair CLR 14 -1 36% 75.97 0.0
07 14:55 W 15 G 30 16.09 Fair CLR 13 -2 36% 75.97 0.0
07 14:35 W 22 G 39 16.09 Fair CLR 13 -1 38% 76 0.0
07 14:16 W 19 G 33 16.09 Partly Cloudy SCT060 12 -1 41% 76.02 0.0
07 13:55 NW 24 G 33 16.09 A Few Clouds FEW060 12 -1 12.4 5.1 41% 76.02 0.0
07 13:35 NW 19 G 30 16.09 A Few Clouds FEW060 12 -1 41% 76.02 0.0
07 13:15 NW 19 G 31 16.09 A Few Clouds FEW060 12 -1 41% 76.05 0.0
07 12:55 W 19 16.09 A Few Clouds FEW055 11 -2 41% 76.07 0.0
07 12:35 W 26 G 35 16.09 Mostly Cloudy SCT055 BKN075 11 -1 44% 76.1 0.0
07 12:15 NW 19 G 30 16.09 Mostly Cloudy BKN075 11 -1 44% 76.12 0.0
07 11:56 W 22 G 31 16.09 A Few Clouds FEW075 11 -1 44% 76.12 0.0
07 11:35 W 20 G 28 16.09 Fair CLR 10 -1 47% 8 76.1 0.0
07 11:15 NW 22 16.09 Fair CLR 10 -2 43% 7 76.1 0.0
07 10:55 NW 19 16.09 Fair CLR 9 -2 46% 7 76.1 0.0
07 10:35 W 22 16.09 Fair CLR 9 -1 50% 6 76.1 0.0
07 10:15 W 22 G 30 16.09 Fair CLR 8 -2 50% 5 76.1 0.0
07 09:55 W 19 G 31 16.09 Fair CLR 8 -2 50% 5 76.1 0.0
07 09:36 W 24 16.09 Fair CLR 8 -2 50% 5 76.12 0.0
07 09:15 W 15 16.09 Fair CLR 7 0 61% 5 76.1 0.0
07 08:55 Vrbl 11 16.09 Fair CLR 7 0 61% 5 76.1 0.0
07 08:35 W 13 16.09 Fair CLR 6 0 66% 4 76.1 0.0
07 08:15 W 15 16.09 Fair CLR 6 0 66% 3 76.1 0.0
07 07:55 W 15 16.09 Fair CLR 5 1 7.5 3.1 76% 2 76.1 0.0
07 07:35 W 9 16.09 Fair CLR 4 1 81% 2 76.07 0.0
07 07:16 SW 7 16.09 Fair CLR 3 0 81% 1 76.07 0.0
07 06:55 W 9 16.09 Fair CLR 3 0 81% 1 76.05 0.0
Date Time (edt) Wind (kph) Vis. (km) Weather Sky Cond. Air Dwpt Max. Min. Relative Humidity Wind Chill (°C) Heat Index (°C) altimeter (cm) sea level (mb) 1 hr 3 hr 6 hr
6 hour
Temperature (ºC) Pressure Precipitation (cm)